Colonia Pastoril, Argentina
Current Conditions -  °F | °C
As of 6:00 AM on Saturday 22 Nov 2014 (Local Time) from SARF Reporting Station
Clear Clear  
Wind Chill: 17°   Ceiling: Unl
Heat Index: 17°   Visibility: 6mi
Dew Point: 16°   Wind: 7mph
Humidity: 94%   Direction: 180°S
Pressure: 29.91"   Gusts: NA
Location:  26.14°S, 58.39°W
Report Text: SARF 220900Z 18006KT CAVOK 17/16 Q1013
Loading
Personal Weather Stations






























Interactive Weather Map New forecast layout! Learn more

10-Day Weather Forecast

Advertisements
Track Severe Weather on mobile